Time;durP1;ratioP1;P1;durP2;ratioP2;P2;SDS_P1;SDS_P2;PMS_P1;PMS_P2;Temp;Humidity;BMP_temperature;BMP_pressure;BME280_temperature;BME280_humidity;BME280_pressure;Samples;Min_cycle;Max_cycle;Signal;HPM_P1;HPM_P2
2022/01/17 00:00:24;;;;;;;9.03;7.83;;;7.80;72.50;7.80;97576.00;;;;5012338;28;20202;-87
2022/01/17 00:02:53;;;;;;;12.20;8.67;;;7.80;72.50;7.80;97583.00;;;;5012447;28;20202;-85
2022/01/17 00:05:20;;;;;;;11.27;8.13;;;7.80;72.60;7.80;97567.00;;;;5012100;28;20218;-85
2022/01/17 00:07:49;;;;;;;10.50;8.03;;;7.80;72.70;7.70;97582.00;;;;5012471;28;20570;-85
2022/01/17 00:10:16;;;;;;;10.47;7.93;;;7.80;72.80;7.70;97572.00;;;;5013008;28;20217;-85
2022/01/17 00:12:46;;;;;;;10.53;7.93;;;7.80;72.90;7.70;97567.00;;;;5014955;28;20288;-85
2022/01/17 00:15:20;;;;;;;9.80;7.40;;;8.20;73.30;7.70;97575.00;;;;5018163;28;20214;-86
2022/01/17 00:17:51;;;;;;;9.33;7.50;;;7.70;73.10;7.70;97569.00;;;;5023596;28;20201;-85
2022/01/17 00:20:25;;;;;;;9.70;8.13;;;7.70;73.00;7.70;97578.00;;;;5018368;28;20186;-85
2022/01/17 00:22:54;;;;;;;11.07;8.13;;;7.70;73.10;7.70;97573.00;;;;5017280;28;20317;-85
2022/01/17 00:25:22;;;;;;;10.97;7.57;;;7.70;73.20;7.70;97568.00;;;;5014711;28;20712;-85
2022/01/17 00:27:51;;;;;;;9.80;8.13;;;7.70;73.30;7.80;97577.00;;;;5015561;28;20682;-86
2022/01/17 00:30:18;;;;;;;10.50;7.80;;;7.70;73.30;7.70;97585.00;;;;5014844;28;20221;-85
2022/01/17 00:32:46;;;;;;;10.10;8.30;;;7.70;73.40;7.70;97573.00;;;;5015024;28;20197;-85
2022/01/17 00:35:13;;;;;;;10.30;8.10;;;7.70;73.30;7.70;97561.00;;;;5015171;28;20220;-85
2022/01/17 00:37:40;;;;;;;9.30;7.40;;;7.70;73.40;7.70;97568.00;;;;5015457;28;20204;-85
2022/01/17 00:40:11;;;;;;;10.33;8.50;;;7.80;73.50;7.70;97561.00;;;;5014940;28;20212;-85
2022/01/17 00:42:40;;;;;;;9.87;8.00;;;7.70;73.40;7.70;97563.00;;;;5014190;28;20213;-84
2022/01/17 00:45:11;;;;;;;11.77;8.53;;;7.70;73.40;7.70;97566.00;;;;5014193;28;20683;-85
2022/01/17 00:47:39;;;;;;;9.23;7.23;;;7.70;73.40;7.70;97567.00;;;;5012390;28;20193;-85
2022/01/17 00:50:08;;;;;;;11.63;8.43;;;7.70;73.40;7.60;97564.00;;;;4995469;28;20202;-85
2022/01/17 00:52:35;;;;;;;11.30;8.67;;;7.70;73.50;7.60;97560.00;;;;5012637;28;20198;-85
2022/01/17 00:55:02;;;;;;;11.17;8.03;;;7.70;73.40;7.60;97565.00;;;;5014307;28;20622;-85
2022/01/17 00:57:30;;;;;;;10.70;8.07;;;7.70;73.50;7.60;97567.00;;;;5014222;28;20570;-85
2022/01/17 00:59:57;;;;;;;10.20;7.80;;;7.70;73.50;7.60;97571.00;;;;5014016;28;20194;-85
2022/01/17 01:02:24;;;;;;;11.07;8.13;;;8.10;73.80;7.60;97572.00;;;;5015064;28;20201;-85
2022/01/17 01:04:51;;;;;;;11.73;8.60;;;7.70;73.50;7.60;97562.00;;;;5014677;28;20509;-84
2022/01/17 01:07:18;;;;;;;11.90;8.50;;;7.70;73.50;7.60;97559.00;;;;5014043;28;20655;-85
2022/01/17 01:09:55;;;;;;;11.10;8.77;;;7.60;73.40;7.60;97564.00;;;;5013197;28;20667;-85
2022/01/17 01:12:22;;;;;;;12.53;8.73;;;7.60;73.50;7.60;97553.00;;;;5013863;28;20209;-85
2022/01/17 01:14:51;;;;;;;13.00;9.63;;;7.80;73.60;7.60;97552.00;;;;5013965;28;20218;-85
2022/01/17 01:17:31;;;;;;;12.50;9.17;;;8.20;73.60;7.60;97561.00;;;;5013814;28;20212;-88
2022/01/17 01:20:08;;;;;;;14.87;9.13;;;7.60;73.30;7.60;97567.00;;;;5014110;28;20675;-84
2022/01/17 01:28:19;;;;;;;11.17;8.70;;;7.60;73.20;7.60;97568.00;;;;4953231;29;20204;-85
2022/01/17 01:30:51;;;;;;;11.67;9.23;;;7.60;73.20;7.60;97560.00;;;;4953590;29;20641;-85
2022/01/17 01:33:24;;;;;;;11.60;8.93;;;7.60;73.20;7.60;97558.00;;;;4983653;28;20330;-84
2022/01/17 01:35:58;;;;;;;11.10;8.13;;;7.60;73.20;7.60;97550.00;;;;5017462;28;20238;-85
2022/01/17 01:38:26;;;;;;;10.77;8.57;;;7.60;73.20;7.60;97562.00;;;;5012897;28;20680;-85
2022/01/17 01:40:53;;;;;;;12.37;9.13;;;7.60;73.20;7.60;97557.00;;;;4994077;28;20198;-85
2022/01/17 01:43:20;;;;;;;13.83;9.13;;;7.60;73.20;7.60;97562.00;;;;4994854;28;20203;-85
2022/01/17 01:45:50;;;;;;;12.73;8.73;;;7.60;73.10;7.60;97571.00;;;;5013030;28;20210;-85
2022/01/17 01:48:19;;;;;;;12.40;8.83;;;7.60;73.10;7.60;97576.00;;;;5022647;28;20255;-85
2022/01/17 01:50:46;;;;;;;11.37;8.50;;;7.60;73.20;7.50;97583.00;;;;5013908;28;20709;-84
2022/01/17 01:53:14;;;;;;;12.60;9.33;;;7.60;73.20;7.50;97571.00;;;;5014448;28;20202;-85
2022/01/17 01:55:41;;;;;;;13.90;9.00;;;7.60;73.20;7.50;97566.00;;;;5013473;28;20218;-85
2022/01/17 01:58:10;;;;;;;10.53;8.10;;;7.60;73.20;7.50;97555.00;;;;5013498;28;20202;-85
2022/01/17 02:00:38;;;;;;;11.10;8.17;;;7.60;73.20;7.50;97550.00;;;;5013582;28;20213;-84
2022/01/17 02:03:07;;;;;;;11.23;8.70;;;7.60;73.20;7.60;97554.00;;;;5019354;28;20674;-87
2022/01/17 02:05:34;;;;;;;11.27;8.27;;;7.60;73.10;7.50;97552.00;;;;5033537;28;20213;-85
2022/01/17 02:08:01;;;;;;;12.00;8.63;;;7.60;73.20;7.50;97552.00;;;;5033640;28;20571;-85
2022/01/17 02:10:29;;;;;;;11.87;9.00;;;7.60;73.20;7.60;97533.00;;;;5021792;28;20572;-84
2022/01/17 02:12:56;;;;;;;11.53;8.50;;;7.60;73.10;7.60;97538.00;;;;5006019;28;20182;-86
2022/01/17 02:15:23;;;;;;;11.97;8.57;;;7.60;73.10;7.60;97547.00;;;;5013074;28;20236;-84
2022/01/17 02:17:55;;;;;;;11.30;8.73;;;7.70;73.00;7.60;97543.00;;;;5013908;28;20206;-85
2022/01/17 02:20:34;;;;;;;10.13;7.77;;;7.60;73.00;7.60;97554.00;;;;5012811;28;20281;-86
2022/01/17 02:23:04;;;;;;;10.97;7.73;;;7.60;72.80;7.60;97543.00;;;;4994141;28;20191;-85
2022/01/17 02:25:32;;;;;;;13.90;9.30;;;7.70;72.90;7.60;97546.00;;;;5011359;28;20634;-85
2022/01/17 02:27:59;;;;;;;11.93;8.00;;;7.70;72.90;7.70;97556.00;;;;5012727;28;20572;-85
2022/01/17 02:30:27;;;;;;;11.70;8.80;;;7.70;72.80;7.60;97551.00;;;;5013060;28;20198;-86
2022/01/17 02:32:54;;;;;;;10.37;8.67;;;7.70;72.60;7.60;97545.00;;;;5013529;28;20206;-85
2022/01/17 02:35:25;;;;;;;11.63;8.43;;;7.70;72.70;7.70;97557.00;;;;5012693;28;20231;-85
2022/01/17 02:37:53;;;;;;;12.17;9.13;;;7.70;72.70;7.70;97550.00;;;;5008641;28;20192;-85
2022/01/17 02:40:22;;;;;;;10.73;7.90;;;7.70;72.80;7.70;97537.00;;;;5012058;28;20228;-86
2022/01/17 02:42:51;;;;;;;13.57;9.13;;;7.70;72.50;7.70;97543.00;;;;5013220;28;20198;-85
2022/01/17 02:45:31;;;;;;;11.10;8.17;;;7.70;72.70;7.70;97538.00;;;;5012722;28;20214;-86
2022/01/17 02:48:00;;;;;;;10.73;7.83;;;7.70;72.40;7.70;97541.00;;;;5013024;28;20273;-85
2022/01/17 02:50:30;;;;;;;11.60;8.40;;;7.70;72.40;7.70;97533.00;;;;5012489;28;20313;-85
2022/01/17 02:53:01;;;;;;;9.17;7.80;;;7.80;72.50;7.70;97519.00;;;;5013373;28;20199;-84
2022/01/17 02:55:29;;;;;;;11.20;8.10;;;7.80;72.40;7.70;97525.00;;;;5012324;28;20612;-86
2022/01/17 02:57:56;;;;;;;11.47;8.23;;;7.80;72.80;7.70;97524.00;;;;5012434;28;20201;-84
2022/01/17 03:00:24;;;;;;;14.10;9.77;;;7.80;72.40;7.70;97530.00;;;;5012336;28;20198;-84
2022/01/17 03:02:51;;;;;;;13.63;9.10;;;7.80;72.20;7.70;97531.00;;;;5013001;28;20583;-85
2022/01/17 03:05:20;;;;;;;11.57;8.80;;;7.80;72.00;7.70;97518.00;;;;5012228;28;20218;-86
2022/01/17 03:07:50;;;;;;;12.00;8.30;;;7.80;71.90;7.70;97514.00;;;;5012033;28;20205;-85
2022/01/17 03:10:28;;;;;;;11.10;8.50;;;7.80;71.80;7.70;97521.00;;;;4993354;28;20545;-84
2022/01/17 03:13:03;;;;;;;10.83;8.07;;;7.80;71.90;7.70;97535.00;;;;5012757;28;20253;-85
2022/01/17 03:15:30;;;;;;;12.53;8.67;;;7.80;71.90;7.70;97539.00;;;;5012630;28;20316;-85
2022/01/17 03:17:57;;;;;;;12.57;8.73;;;7.80;72.10;7.80;97547.00;;;;5012497;28;20191;-86
2022/01/17 03:20:24;;;;;;;12.67;8.97;;;7.80;71.90;7.80;97547.00;;;;5012293;28;20204;-86
2022/01/17 03:22:53;;;;;;;10.23;7.97;;;8.20;72.10;7.80;97550.00;;;;5012275;28;20205;-85
2022/01/17 03:25:20;;;;;;;14.63;8.53;;;7.80;71.70;7.80;97565.00;;;;5012160;28;20233;-86
2022/01/17 03:27:47;;;;;;;12.27;8.30;;;7.80;71.40;7.80;97556.00;;;;5012642;28;20225;-85
2022/01/17 03:30:15;;;;;;;11.40;8.10;;;7.80;71.50;7.80;97557.00;;;;5030067;28;20204;-85
2022/01/17 03:32:42;;;;;;;9.23;7.10;;;7.80;71.30;7.80;97560.00;;;;5021134;28;20312;-86
2022/01/17 03:35:10;;;;;;;11.90;8.83;;;7.80;71.50;7.80;97563.00;;;;5012616;28;20589;-86
2022/01/17 03:37:37;;;;;;;9.93;7.93;;;7.80;71.50;7.80;97547.00;;;;5009462;28;20209;-86
2022/01/17 03:40:07;;;;;;;10.13;7.97;;;7.80;71.20;7.80;97534.00;;;;5011185;28;20664;-86
2022/01/17 03:42:35;;;;;;;9.90;7.97;;;7.90;71.10;7.80;97539.00;;;;5011634;28;20213;-86
2022/01/17 03:45:04;;;;;;;11.63;7.93;;;7.80;70.80;7.80;97540.00;;;;5011572;28;20241;-85
2022/01/17 03:47:31;;;;;;;9.90;7.60;;;7.80;70.90;7.70;97539.00;;;;5012324;28;20194;-86
2022/01/17 03:49:58;;;;;;;8.30;6.80;;;7.80;71.10;7.80;97531.00;;;;5011601;28;20661;-85
2022/01/17 03:52:25;;;;;;;10.03;7.20;;;7.80;71.00;7.80;97525.00;;;;4995622;28;20230;-86
2022/01/17 03:54:52;;;;;;;9.93;7.67;;;7.90;70.90;7.80;97531.00;;;;4996307;28;20223;-86
2022/01/17 03:57:20;;;;;;;9.83;7.73;;;7.90;71.00;7.80;97536.00;;;;4995995;28;20205;-86
2022/01/17 03:59:47;;;;;;;9.57;7.23;;;7.90;70.80;7.80;97527.00;;;;5014065;28;20205;-86
2022/01/17 04:02:14;;;;;;;10.07;7.20;;;7.90;70.80;7.80;97523.00;;;;5015281;28;20201;-86
2022/01/17 04:04:41;;;;;;;10.53;6.73;;;7.90;70.90;7.80;97524.00;;;;5015693;28;20276;-86
2022/01/17 04:07:08;;;;;;;8.87;7.53;;;7.90;70.60;7.80;97543.00;;;;5015691;28;20209;-86
2022/01/17 04:09:35;;;;;;;9.27;6.83;;;7.80;70.50;7.80;97534.00;;;;5015264;28;20204;-86
2022/01/17 04:12:03;;;;;;;8.50;6.37;;;7.90;70.80;7.80;97540.00;;;;5015767;28;20233;-86
2022/01/17 04:14:34;;;;;;;9.40;7.03;;;7.90;70.80;7.80;97544.00;;;;5017455;28;20202;-86
2022/01/17 04:17:02;;;;;;;8.47;6.53;;;8.00;70.60;7.80;97540.00;;;;5037626;28;20449;-85
2022/01/17 04:19:29;;;;;;;8.30;6.73;;;7.90;70.50;7.80;97537.00;;;;5018105;28;20193;-85
2022/01/17 04:21:57;;;;;;;7.97;6.60;;;7.80;70.50;7.80;97536.00;;;;5018408;28;20293;-85
2022/01/17 04:24:27;;;;;;;8.20;6.20;;;7.90;70.30;7.80;97543.00;;;;5015003;28;20194;-86
2022/01/17 04:26:54;;;;;;;9.80;6.83;;;7.90;70.20;7.80;97526.00;;;;5015517;28;20573;-86
2022/01/17 04:29:22;;;;;;;7.57;6.47;;;7.90;69.90;7.80;97538.00;;;;5007336;28;20221;-86
2022/01/17 04:31:50;;;;;;;8.40;6.57;;;7.90;70.20;7.80;97533.00;;;;5013475;28;20226;-85
2022/01/17 04:34:17;;;;;;;8.47;6.50;;;7.90;70.10;7.80;97534.00;;;;5014338;28;20205;-86
2022/01/17 04:36:44;;;;;;;8.40;6.03;;;7.90;70.00;7.80;97542.00;;;;5014958;28;20229;-86
2022/01/17 04:39:16;;;;;;;7.93;6.13;;;7.90;70.00;7.80;97547.00;;;;5014929;28;20198;-86
2022/01/17 04:41:43;;;;;;;7.27;6.10;;;7.90;70.00;7.80;97555.00;;;;5013956;28;20652;-86
2022/01/17 04:46:56;;;;;;;7.20;6.20;;;7.90;70.10;7.80;97567.00;;;;5014788;28;20184;-85
2022/01/17 04:49:22;;;;;;;8.40;6.20;;;7.90;69.70;7.80;97562.00;;;;5013844;28;20208;-85
2022/01/17 04:51:53;;;;;;;6.83;5.53;;;7.90;69.50;7.80;97554.00;;;;5014185;28;20222;-85
2022/01/17 04:54:39;;;;;;;8.90;6.00;;;7.90;69.80;7.90;97549.00;;;;5014513;28;20189;-86
2022/01/17 04:57:07;;;;;;;7.93;6.00;;;7.90;69.90;7.90;97533.00;;;;5013330;28;20597;-86
2022/01/17 04:59:34;;;;;;;8.10;5.90;;;8.00;70.70;7.90;97532.00;;;;5014269;28;20190;-84
2022/01/17 05:02:03;;;;;;;8.87;6.77;;;8.20;70.00;7.90;97525.00;;;;5012909;28;20209;-86
2022/01/17 05:04:30;;;;;;;8.20;6.10;;;8.00;69.90;7.90;97537.00;;;;5014289;28;20221;-85
2022/01/17 05:06:57;;;;;;;8.73;6.03;;;8.00;69.90;7.90;97538.00;;;;5013823;28;20194;-86
2022/01/17 05:09:24;;;;;;;6.17;5.37;;;8.00;69.70;7.90;97541.00;;;;5013705;28;20727;-85
2022/01/17 05:11:52;;;;;;;8.23;6.40;;;8.00;69.40;7.90;97538.00;;;;5014283;28;20228;-86
2022/01/17 05:14:19;;;;;;;7.23;5.70;;;8.00;69.50;7.90;97529.00;;;;5013572;28;20241;-85
2022/01/17 05:16:50;;;;;;;6.57;5.17;;;8.00;69.60;8.00;97538.00;;;;5014079;28;20244;-86
2022/01/17 05:22:04;;;;;;;8.27;5.90;;;8.00;69.10;8.00;97528.00;;;;5013854;28;20603;-86
2022/01/17 05:24:31;;;;;;;6.10;5.33;;;8.00;69.40;7.90;97531.00;;;;5013030;28;20201;-85
2022/01/17 05:26:58;;;;;;;6.77;5.70;;;8.00;69.40;8.00;97524.00;;;;5013271;28;20198;-86
2022/01/17 05:29:25;;;;;;;7.30;5.40;;;8.00;69.30;8.00;97515.00;;;;5012670;28;20194;-85
2022/01/17 05:31:52;;;;;;;6.73;5.30;;;8.00;69.60;8.00;97521.00;;;;5013859;28;20228;-86
2022/01/17 05:34:20;;;;;;;6.87;5.37;;;8.10;69.70;8.00;97537.00;;;;5012692;28;20190;-86
2022/01/17 05:36:47;;;;;;;7.30;5.67;;;8.00;69.60;8.10;97541.00;;;;5013280;28;20619;-86
2022/01/17 05:39:15;;;;;;;7.47;6.10;;;8.10;69.50;8.10;97552.00;;;;5012538;28;20202;-86
2022/01/17 05:41:42;;;;;;;8.33;6.13;;;8.10;69.50;8.10;97562.00;;;;5013193;28;20703;-85
2022/01/17 05:44:09;;;;;;;6.23;5.53;;;8.10;69.50;8.00;97566.00;;;;5012164;28;20205;-85
2022/01/17 05:46:36;;;;;;;8.40;6.10;;;8.10;69.50;8.00;97570.00;;;;5012537;28;20719;-84
2022/01/17 05:49:04;;;;;;;6.43;5.63;;;8.10;69.70;8.00;97567.00;;;;5011966;28;20201;-86
2022/01/17 05:51:33;;;;;;;7.47;6.33;;;8.10;69.50;8.00;97567.00;;;;5013226;28;20695;-86
2022/01/17 05:54:00;;;;;;;6.83;5.93;;;8.10;69.70;8.00;97597.00;;;;5012242;28;20204;-86
2022/01/17 05:56:27;;;;;;;7.83;5.90;;;8.10;69.60;8.00;97595.00;;;;5012009;28;20210;-86
2022/01/17 05:58:54;;;;;;;6.73;5.57;;;8.10;69.70;8.00;97595.00;;;;5012626;28;20205;-85
2022/01/17 06:01:21;;;;;;;7.70;5.43;;;8.10;69.50;7.90;97590.00;;;;5012918;28;20305;-86
2022/01/17 06:03:48;;;;;;;5.97;5.37;;;8.00;69.50;7.90;97573.00;;;;4997801;28;20197;-86
2022/01/17 06:06:15;;;;;;;7.77;6.70;;;8.00;69.70;7.90;97579.00;;;;5012105;28;20758;-86
2022/01/17 06:08:44;;;;;;;7.97;5.80;;;8.00;69.80;7.90;97578.00;;;;5012776;28;20201;-86
2022/01/17 06:11:11;;;;;;;7.33;5.47;;;8.00;69.70;7.90;97583.00;;;;5012342;28;20562;-86
2022/01/17 06:13:38;;;;;;;6.93;5.33;;;7.90;69.80;8.00;97577.00;;;;5012282;28;20237;-85
2022/01/17 06:16:06;;;;;;;6.50;5.80;;;8.00;69.90;8.00;97571.00;;;;5012370;28;20699;-86
2022/01/17 06:18:33;;;;;;;7.57;5.37;;;8.00;69.90;8.00;97553.00;;;;5012423;28;20198;-86
2022/01/17 06:21:00;;;;;;;6.30;5.20;;;8.00;70.00;8.00;97548.00;;;;5011181;28;20205;-86
2022/01/17 06:23:27;;;;;;;6.97;5.23;;;8.00;70.00;8.00;97545.00;;;;5012269;28;20216;-86
2022/01/17 06:25:55;;;;;;;6.97;5.47;;;8.00;69.80;8.00;97533.00;;;;5011862;28;20222;-86
2022/01/17 06:28:22;;;;;;;6.90;5.37;;;8.00;70.00;8.00;97524.00;;;;5011838;28;20195;-84
2022/01/17 06:30:50;;;;;;;5.80;5.20;;;8.10;69.70;8.00;97538.00;;;;5012825;28;20205;-86
2022/01/17 06:33:17;;;;;;;7.33;5.23;;;8.10;69.60;8.00;97529.00;;;;5013103;28;20225;-85
2022/01/17 06:35:44;;;;;;;6.83;5.50;;;8.10;69.70;8.00;97523.00;;;;4995645;28;20569;-85
2022/01/17 06:38:11;;;;;;;5.97;5.30;;;8.10;69.80;8.00;97515.00;;;;5001226;28;20190;-87
2022/01/17 06:40:38;;;;;;;6.43;5.47;;;8.10;69.70;8.10;97530.00;;;;5012611;28;20197;-85
2022/01/17 06:43:08;;;;;;;6.57;5.50;;;8.10;69.80;8.10;97543.00;;;;5022647;28;20209;-85
2022/01/17 06:45:35;;;;;;;13.00;7.90;;;8.10;69.80;8.10;97557.00;;;;5035036;28;20214;-87
2022/01/17 06:48:02;;;;;;;8.97;6.37;;;8.10;69.70;8.10;97558.00;;;;5031974;28;20616;-84
2022/01/17 06:50:30;;;;;;;7.30;5.73;;;8.20;69.90;8.10;97579.00;;;;5015211;28;20198;-85
2022/01/17 06:52:57;;;;;;;7.03;5.33;;;8.10;69.80;8.20;97592.00;;;;5012690;28;20217;-85
2022/01/17 06:55:24;;;;;;;6.00;5.23;;;8.20;70.00;8.20;97592.00;;;;5010840;28;20214;-85
2022/01/17 06:57:51;;;;;;;7.20;5.37;;;8.20;70.00;8.20;97584.00;;;;5012035;28;20202;-85
2022/01/17 07:00:20;;;;;;;7.07;5.53;;;8.30;70.10;8.20;97595.00;;;;5012593;28;20201;-85
2022/01/17 07:02:47;;;;;;;6.67;5.40;;;8.20;69.90;8.20;97596.00;;;;5012123;28;20206;-85
2022/01/17 07:05:15;;;;;;;5.80;4.40;;;8.20;70.50;8.30;97582.00;;;;5012243;28;20256;-85
2022/01/17 07:07:43;;;;;;;8.50;7.53;;;8.20;69.70;8.30;97558.00;;;;5011290;28;20224;-85
2022/01/17 07:10:10;;;;;;;7.27;6.30;;;8.30;69.90;8.30;97573.00;;;;5011947;28;20205;-86
2022/01/17 07:12:37;;;;;;;6.63;5.70;;;8.30;69.80;8.30;97607.00;;;;5011521;28;20218;-85
2022/01/17 07:15:05;;;;;;;5.43;4.77;;;8.30;69.80;8.30;97615.00;;;;5011084;28;20214;-87
2022/01/17 07:17:34;;;;;;;6.43;5.17;;;8.20;69.70;8.30;97630.00;;;;5011890;28;20648;-87
2022/01/17 07:20:01;;;;;;;5.77;5.20;;;8.30;69.90;8.30;97634.00;;;;5010779;28;20196;-86
2022/01/17 07:22:29;;;;;;;7.37;5.23;;;8.30;69.80;8.30;97653.00;;;;5008227;28;20596;-86
2022/01/17 07:24:56;;;;;;;5.03;4.27;;;8.30;69.90;8.30;97657.00;;;;5015689;28;20235;-85
2022/01/17 07:27:24;;;;;;;5.60;4.83;;;8.30;70.00;8.40;97644.00;;;;5016081;28;20190;-86
2022/01/17 07:29:51;;;;;;;4.83;4.40;;;8.40;70.00;8.40;97659.00;;;;5015131;28;20655;-85
2022/01/17 07:32:19;;;;;;;5.30;4.50;;;8.40;70.00;8.40;97679.00;;;;5015837;28;20202;-85
2022/01/17 07:34:47;;;;;;;6.43;4.87;;;8.40;70.20;8.40;97693.00;;;;5014281;28;20226;-85
2022/01/17 07:37:14;;;;;;;5.20;4.70;;;8.40;70.20;8.50;97680.00;;;;5010014;28;20679;-84
2022/01/17 07:39:43;;;;;;;6.83;5.33;;;8.50;71.10;8.50;97656.00;;;;5015647;28;20194;-85
2022/01/17 07:42:10;;;;;;;5.27;4.47;;;8.50;70.30;8.60;97654.00;;;;5015953;28;20198;-84
2022/01/17 07:44:40;;;;;;;7.07;4.80;;;8.50;70.30;8.60;97651.00;;;;5015161;28;20236;-85
2022/01/17 07:47:15;;;;;;;6.37;4.97;;;8.50;70.20;8.60;97656.00;;;;5015264;28;20202;-85
2022/01/17 07:49:44;;;;;;;5.17;4.63;;;8.50;70.10;8.60;97668.00;;;;5015600;28;20280;-84
2022/01/17 07:52:13;;;;;;;6.03;4.73;;;8.60;70.20;8.60;97673.00;;;;5015536;28;20198;-85
2022/01/17 07:54:43;;;;;;;7.43;5.60;;;8.60;70.30;8.70;97669.00;;;;5015624;28;20198;-85
2022/01/17 07:57:11;;;;;;;5.87;4.83;;;8.60;70.10;8.70;97667.00;;;;5015720;28;20711;-84
2022/01/17 07:59:38;;;;;;;6.13;5.07;;;8.60;70.20;8.70;97665.00;;;;5015367;28;20202;-85
2022/01/17 08:02:06;;;;;;;4.87;4.37;;;8.70;70.20;8.80;97663.00;;;;5015864;28;20201;-85
2022/01/17 08:04:33;;;;;;;5.93;5.03;;;8.70;70.00;8.80;97658.00;;;;5014272;28;20671;-84
2022/01/17 08:07:00;;;;;;;6.87;5.47;;;8.70;70.10;8.80;97667.00;;;;5014886;28;20718;-85
2022/01/17 08:09:31;;;;;;;4.83;4.33;;;8.80;69.90;8.80;97664.00;;;;5015186;28;20209;-85
2022/01/17 08:12:00;;;;;;;6.17;5.03;;;8.80;70.00;8.80;97655.00;;;;5019463;28;20189;-85
2022/01/17 08:14:27;;;;;;;5.33;4.33;;;8.70;69.90;8.80;97656.00;;;;5014953;28;20253;-84
2022/01/17 08:16:55;;;;;;;6.07;4.87;;;8.70;70.00;8.90;97669.00;;;;5014492;28;20206;-84
2022/01/17 08:19:24;;;;;;;5.00;4.50;;;8.80;70.20;8.90;97683.00;;;;5015555;28;20208;-85
2022/01/17 08:21:52;;;;;;;5.37;4.87;;;8.80;70.10;8.90;97679.00;;;;5012275;28;20222;-84
2022/01/17 08:24:20;;;;;;;5.17;4.50;;;8.80;70.00;9.00;97683.00;;;;5014310;28;20202;-85
2022/01/17 08:26:50;;;;;;;6.60;5.00;;;8.80;70.00;9.00;97661.00;;;;5008869;28;20305;-85
2022/01/17 08:29:18;;;;;;;5.30;4.80;;;8.90;69.90;9.00;97652.00;;;;5006356;28;20632;-84
2022/01/17 08:31:47;;;;;;;4.97;4.47;;;8.90;69.90;9.10;97652.00;;;;5014270;28;20198;-86
2022/01/17 08:34:17;;;;;;;5.37;4.50;;;8.90;70.00;9.10;97662.00;;;;5013275;28;20226;-84
2022/01/17 08:36:44;;;;;;;5.77;4.90;;;9.00;70.00;9.20;97669.00;;;;5029611;28;20213;-84
2022/01/17 08:39:11;;;;;;;5.83;5.00;;;9.00;70.00;9.20;97656.00;;;;5022384;28;20201;-85
2022/01/17 08:41:42;;;;;;;5.03;4.53;;;9.00;69.80;9.20;97643.00;;;;5014190;28;20205;-85
2022/01/17 08:44:12;;;;;;;5.23;4.60;;;9.00;69.60;9.20;97639.00;;;;5014421;28;20190;-85
2022/01/17 08:46:39;;;;;;;6.10;5.23;;;9.10;69.70;9.20;97635.00;;;;5012022;28;20214;-84
2022/01/17 08:49:06;;;;;;;5.63;4.27;;;9.10;69.70;9.20;97632.00;;;;5011835;28;20202;-84
2022/01/17 08:51:33;;;;;;;5.87;5.27;;;9.10;69.70;9.20;97642.00;;;;5008000;28;20201;-85
2022/01/17 08:54:00;;;;;;;6.53;4.60;;;9.10;69.80;9.20;97664.00;;;;5009422;28;20222;-84
2022/01/17 08:56:29;;;;;;;5.13;4.57;;;9.10;69.70;9.30;97666.00;;;;5012509;28;20228;-85
2022/01/17 08:58:57;;;;;;;5.83;5.00;;;9.10;69.80;9.30;97680.00;;;;5013711;28;20209;-84
2022/01/17 09:01:26;;;;;;;4.73;3.87;;;9.20;69.80;9.30;97681.00;;;;5013833;28;20204;-84
2022/01/17 09:03:54;;;;;;;4.63;4.10;;;9.20;69.60;9.30;97684.00;;;;5014105;28;20205;-85
2022/01/17 09:06:23;;;;;;;5.47;4.33;;;9.30;69.90;9.30;97679.00;;;;5013585;28;20224;-85
2022/01/17 09:08:50;;;;;;;5.07;4.40;;;9.20;69.60;9.30;97671.00;;;;5014211;28;20202;-85
2022/01/17 09:11:17;;;;;;;5.53;4.50;;;9.20;69.70;9.40;97681.00;;;;5009838;28;20683;-84
2022/01/17 09:13:44;;;;;;;4.90;4.50;;;9.20;69.90;9.40;97676.00;;;;5013620;28;20228;-85
2022/01/17 09:16:12;;;;;;;5.63;4.60;;;9.30;70.00;9.40;97677.00;;;;5014179;28;20319;-84
2022/01/17 09:18:40;;;;;;;4.70;4.30;;;9.30;70.20;9.40;97686.00;;;;5014396;28;20194;-85
2022/01/17 09:21:08;;;;;;;5.93;4.43;;;9.30;70.20;9.40;97691.00;;;;5012596;28;20201;-84
2022/01/17 09:23:36;;;;;;;4.57;4.10;;;9.30;70.20;9.40;97687.00;;;;5014258;28;20574;-85
2022/01/17 09:26:04;;;;;;;5.33;4.30;;;9.30;70.30;9.50;97694.00;;;;5013654;28;20221;-84
2022/01/17 09:28:31;;;;;;;5.07;4.40;;;9.30;70.50;9.50;97714.00;;;;5013812;28;20652;-85
2022/01/17 09:30:58;;;;;;;5.67;3.93;;;9.40;70.50;9.60;97707.00;;;;5015272;28;20202;-83
2022/01/17 09:33:25;;;;;;;5.90;4.83;;;9.40;70.40;9.60;97735.00;;;;5016808;28;20218;-87
2022/01/17 09:35:53;;;;;;;5.73;4.30;;;9.40;70.60;9.70;97729.00;;;;5013172;28;20217;-85
2022/01/17 09:38:20;;;;;;;5.23;4.70;;;9.50;70.60;9.80;97713.00;;;;5014553;28;20186;-84
2022/01/17 09:40:48;;;;;;;4.63;4.13;;;9.50;70.60;9.80;97709.00;;;;5014054;28;20223;-85
2022/01/17 09:43:15;;;;;;;4.73;4.07;;;9.60;70.60;9.90;97714.00;;;;5013146;28;20197;-83
2022/01/17 09:45:42;;;;;;;5.13;4.47;;;9.60;70.60;9.90;97720.00;;;;5013398;28;20687;-87
2022/01/17 09:48:19;;;;;;;5.10;4.60;;;9.70;70.40;10.00;97729.00;;;;5015175;28;20198;-83
2022/01/17 09:51:00;;;;;;;5.17;4.23;;;9.80;70.60;10.10;97735.00;;;;5014724;28;20193;-85
2022/01/17 09:53:29;;;;;;;4.63;4.20;;;9.80;70.50;10.10;97718.00;;;;5014026;28;20598;-83
2022/01/17 09:56:02;;;;;;;4.80;4.30;;;9.90;70.20;10.10;97733.00;;;;5012763;28;20579;-84
2022/01/17 09:58:31;;;;;;;4.93;4.30;;;9.90;70.20;10.10;97730.00;;;;5015778;28;20200;-85
2022/01/17 10:00:59;;;;;;;4.60;4.20;;;10.00;70.00;10.20;97730.00;;;;5016469;28;20198;-87
2022/01/17 10:03:27;;;;;;;4.70;4.17;;;10.00;69.90;10.20;97724.00;;;;5014181;28;20268;-86
2022/01/17 10:05:54;;;;;;;4.77;4.27;;;10.00;69.90;10.20;97725.00;;;;5014701;28;20401;-83
2022/01/17 10:08:22;;;;;;;5.17;4.60;;;10.10;69.80;10.30;97718.00;;;;5028676;28;20197;-86
2022/01/17 10:10:57;;;;;;;6.50;5.00;;;10.10;69.90;10.30;97700.00;;;;5027842;28;20195;-89
2022/01/17 10:13:26;;;;;;;5.00;4.50;;;10.20;69.80;10.40;97690.00;;;;5012912;28;20222;-84
2022/01/17 10:16:03;;;;;;;6.50;4.70;;;10.20;69.70;10.40;97681.00;;;;5012550;28;20238;-84
2022/01/17 10:18:39;;;;;;;5.00;4.03;;;10.20;69.40;10.40;97695.00;;;;5011230;28;20220;-85
2022/01/17 10:21:12;;;;;;;5.40;4.47;;;10.30;69.50;10.40;97682.00;;;;5013935;28;20581;-88
2022/01/17 10:34:55;;;;;;;4.53;3.87;;;10.30;69.40;10.30;97669.00;;;;5014043;28;20233;-86
2022/01/17 10:37:25;;;;;;;4.37;3.97;;;10.20;69.30;10.30;97681.00;;;;5015969;28;20656;-84
2022/01/17 10:40:02;;;;;;;4.30;3.83;;;10.20;69.30;10.30;97677.00;;;;5016798;28;20656;-84
2022/01/17 10:42:35;;;;;;;4.70;4.10;;;10.20;69.00;10.30;97680.00;;;;5018325;28;20194;-83
2022/01/17 10:45:06;;;;;;;5.40;3.87;;;10.20;69.10;10.30;97682.00;;;;5020666;28;20291;-83
2022/01/17 10:47:36;;;;;;;4.20;3.50;;;10.20;69.10;10.30;97688.00;;;;5010878;28;20198;-85
2022/01/17 10:50:08;;;;;;;4.93;4.07;;;10.20;69.10;10.30;97691.00;;;;5017461;28;20234;-84
2022/01/17 10:52:38;;;;;;;4.03;3.63;;;10.20;69.00;10.30;97677.00;;;;5017041;28;20256;-83
2022/01/17 10:55:12;;;;;;;3.50;3.20;;;10.20;69.10;10.30;97688.00;;;;5017348;28;20229;-86
2022/01/17 10:57:43;;;;;;;4.07;3.37;;;10.20;68.50;10.30;97687.00;;;;5016373;28;20210;-84
2022/01/17 11:00:13;;;;;;;2.93;2.63;;;10.20;68.60;10.40;97683.00;;;;5012513;28;20183;-83
2022/01/17 11:02:44;;;;;;;3.87;3.47;;;10.20;69.10;10.40;97682.00;;;;5022868;28;20234;-84
2022/01/17 11:05:13;;;;;;;3.47;3.10;;;10.30;68.90;10.40;97681.00;;;;5027892;28;20229;-83
2022/01/17 11:07:42;;;;;;;2.90;2.60;;;10.30;68.80;10.40;97691.00;;;;5011851;28;20210;-84
2022/01/17 11:10:21;;;;;;;3.43;3.13;;;10.30;69.00;10.50;97674.00;;;;5014875;28;20194;-82
2022/01/17 11:12:54;;;;;;;3.57;3.27;;;10.40;69.00;10.50;97707.00;;;;5020203;28;20660;-83
2022/01/17 11:15:23;;;;;;;3.80;3.30;;;10.40;68.50;10.60;97710.00;;;;5013426;28;20280;-84
2022/01/17 11:17:54;;;;;;;4.03;3.40;;;10.50;68.80;10.50;97691.00;;;;5017235;28;20205;-82
2022/01/17 11:20:23;;;;;;;3.70;3.40;;;10.50;68.50;10.60;97695.00;;;;5001418;28;20194;-85
2022/01/17 11:22:54;;;;;;;7.70;3.03;;;10.50;68.40;10.60;97699.00;;;;5013586;28;20198;-83
2022/01/17 11:25:25;;;;;;;2.77;2.50;;;11.30;68.90;10.60;97702.00;;;;5014880;28;20221;-82
2022/01/17 11:27:53;;;;;;;3.17;2.77;;;10.60;68.20;10.70;97704.00;;;;5009527;28;20200;-85
2022/01/17 11:30:21;;;;;;;3.67;3.37;;;10.60;68.50;10.70;97697.00;;;;5016071;28;20190;-83
2022/01/17 11:32:51;;;;;;;3.87;3.10;;;10.70;68.50;10.80;97703.00;;;;5016163;28;20194;-83